Time;durP1;ratioP1;P1;durP2;ratioP2;P2;SDS_P1;SDS_P2;PMS_P1;PMS_P2;Temp;Humidity;BMP_temperature;BMP_pressure;BME280_temperature;BME280_humidity;BME280_pressure;Samples;Min_cycle;Max_cycle;Signal;HPM_P1;HPM_P2
2021/06/03 00:02:07;;;;;;;6.28;4.57;;;12.80;99.90;;;;;;5115048;28;20581;-82
2021/06/03 00:04:32;;;;;;;9.18;5.10;;;12.70;99.90;;;;;;5115895;28;20662;-83
2021/06/03 00:06:58;;;;;;;8.18;4.97;;;12.70;99.90;;;;;;5115397;28;20278;-82
2021/06/03 00:09:25;;;;;;;8.23;4.65;;;12.70;99.90;;;;;;5115397;28;20178;-82
2021/06/03 00:11:50;;;;;;;8.73;4.78;;;12.70;99.90;;;;;;5115679;28;20286;-82
2021/06/03 00:14:17;;;;;;;6.60;4.57;;;12.70;99.90;;;;;;5113684;28;20197;-82
2021/06/03 00:16:42;;;;;;;6.25;4.97;;;12.60;99.90;;;;;;5114158;28;20267;-82
2021/06/03 00:19:10;;;;;;;9.75;4.88;;;12.60;99.90;;;;;;5114770;28;20210;-82
2021/06/03 00:21:37;;;;;;;9.90;4.60;;;12.50;99.90;;;;;;5115653;28;20166;-82
2021/06/03 00:24:03;;;;;;;9.10;5.30;;;12.50;99.90;;;;;;5114041;28;20264;-83
2021/06/03 00:26:29;;;;;;;8.38;4.97;;;12.40;99.90;;;;;;5115822;28;20227;-82
2021/06/03 00:28:55;;;;;;;14.93;5.40;;;12.40;99.90;;;;;;5115309;28;20174;-82
2021/06/03 00:31:21;;;;;;;10.23;5.35;;;;;;;;;;5114940;28;20182;-82
2021/06/03 00:33:47;;;;;;;7.75;5.03;;;12.30;99.90;;;;;;5114744;28;20193;-82
2021/06/03 00:36:13;;;;;;;10.07;5.30;;;12.20;99.90;;;;;;5114584;28;20189;-82
2021/06/03 00:38:40;;;;;;;11.38;5.22;;;12.10;99.90;;;;;;5114849;28;20553;-82
2021/06/03 00:41:07;;;;;;;8.95;5.32;;;12.10;99.90;;;;;;5114692;28;20178;-82
2021/06/03 00:43:34;;;;;;;8.48;5.15;;;12.10;99.90;;;;;;5115248;28;20205;-82
2021/06/03 00:46:00;;;;;;;9.82;5.22;;;12.00;99.90;;;;;;5114316;28;20202;-81
2021/06/03 00:48:26;;;;;;;9.65;5.75;;;11.90;99.90;;;;;;5115196;28;20174;-82
2021/06/03 00:50:55;;;;;;;8.18;5.22;;;11.80;99.90;;;;;;5115016;28;20185;-83
2021/06/03 00:53:21;;;;;;;8.32;4.95;;;11.80;99.90;;;;;;5114294;28;20193;-82
2021/06/03 00:55:53;;;;;;;11.77;5.38;;;11.80;99.90;;;;;;5114831;28;20189;-83
2021/06/03 00:58:20;;;;;;;7.95;5.10;;;11.70;99.90;;;;;;5114180;28;20181;-83
2021/06/03 01:00:47;;;;;;;8.18;5.18;;;11.60;99.90;;;;;;5113373;28;20180;-83
2021/06/03 01:03:13;;;;;;;13.90;5.47;;;11.60;99.90;;;;;;5113277;28;20182;-83
2021/06/03 01:05:38;;;;;;;7.93;4.88;;;11.60;99.90;;;;;;5114718;28;20672;-82
2021/06/03 01:08:08;;;;;;;14.80;5.15;;;11.60;99.90;;;;;;5113205;28;20169;-82
2021/06/03 01:10:45;;;;;;;7.35;5.10;;;11.50;99.90;;;;;;5114063;28;20166;-82
2021/06/03 01:13:26;;;;;;;10.27;5.03;;;11.50;99.90;;;;;;5114344;28;20214;-82
2021/06/03 01:15:53;;;;;;;13.90;5.57;;;11.40;99.90;;;;;;5114394;28;20161;-83
2021/06/03 01:18:19;;;;;;;11.40;5.53;;;11.40;99.90;;;;;;5113943;28;20176;-82
2021/06/03 01:20:48;;;;;;;8.80;5.00;;;11.30;99.90;;;;;;5114310;28;20174;-82
2021/06/03 01:23:29;;;;;;;11.37;5.60;;;11.30;99.90;;;;;;5113761;28;20645;-83
2021/06/03 01:25:55;;;;;;;9.57;5.47;;;11.20;99.90;;;;;;5114628;28;20185;-83
2021/06/03 01:28:22;;;;;;;9.93;5.75;;;11.10;99.90;;;;;;5114131;28;20169;-82
2021/06/03 01:30:50;;;;;;;14.20;5.68;;;11.10;99.90;;;;;;5114742;28;20188;-83
2021/06/03 01:33:40;;;;;;;12.27;5.73;;;11.00;99.90;;;;;;5114192;28;20198;-82
2021/06/03 01:36:07;;;;;;;9.77;6.05;;;11.00;99.90;;;;;;5113999;28;20226;-82
2021/06/03 01:38:36;;;;;;;9.37;5.73;;;11.00;99.90;;;;;;5113860;28;20161;-82
2021/06/03 01:41:05;;;;;;;10.32;5.40;;;10.90;99.90;;;;;;5114180;28;20178;-82
2021/06/03 01:43:33;;;;;;;10.23;5.55;;;10.90;99.90;;;;;;5114158;28;20181;-82
2021/06/03 01:45:59;;;;;;;10.65;6.32;;;10.80;99.90;;;;;;5113931;28;20177;-82
2021/06/03 01:48:25;;;;;;;9.73;5.73;;;10.80;99.90;;;;;;5113655;28;20174;-82
2021/06/03 01:50:54;;;;;;;10.48;6.22;;;10.70;99.90;;;;;;5113681;28;20178;-82
2021/06/03 01:53:22;;;;;;;8.23;5.68;;;10.70;99.90;;;;;;5113469;28;20202;-82
2021/06/03 01:55:49;;;;;;;16.70;6.13;;;10.70;99.90;;;;;;5112557;28;20654;-82
2021/06/03 01:58:15;;;;;;;10.68;5.75;;;10.60;99.90;;;;;;5112316;28;20205;-82
2021/06/03 02:00:42;;;;;;;13.05;6.40;;;10.60;99.90;;;;;;5113657;28;20201;-82
2021/06/03 02:03:07;;;;;;;8.20;5.80;;;10.50;99.90;;;;;;5113987;28;20258;-81
2021/06/03 02:05:33;;;;;;;13.77;6.63;;;10.50;99.90;;;;;;5113899;28;20223;-82
2021/06/03 02:08:00;;;;;;;10.53;5.83;;;10.40;99.90;;;;;;5113273;28;20177;-82
2021/06/03 02:10:25;;;;;;;17.05;6.40;;;10.40;99.90;;;;;;5113394;28;20649;-82
2021/06/03 02:12:57;;;;;;;11.90;6.03;;;10.30;99.90;;;;;;5112677;28;20178;-82
2021/06/03 02:15:24;;;;;;;13.00;6.83;;;10.30;99.90;;;;;;5113219;28;20709;-83
2021/06/03 02:17:53;;;;;;;12.50;6.30;;;10.30;99.90;;;;;;5113897;28;20177;-83
2021/06/03 02:20:29;;;;;;;13.20;6.03;;;10.20;99.90;;;;;;5117451;28;20170;-83
2021/06/03 02:22:56;;;;;;;11.47;5.93;;;10.20;99.90;;;;;;5117868;28;20157;-83
2021/06/03 02:25:27;;;;;;;13.23;6.50;;;10.20;99.90;;;;;;5116007;28;20640;-82
2021/06/03 02:27:54;;;;;;;9.63;6.23;;;10.10;99.90;;;;;;5117538;28;20172;-82
2021/06/03 02:30:20;;;;;;;10.70;6.23;;;10.20;99.90;;;;;;5117007;28;20162;-82
2021/06/03 02:32:47;;;;;;;10.87;6.17;;;10.10;99.90;;;;;;5117344;28;20181;-83
2021/06/03 02:35:13;;;;;;;11.53;6.73;;;10.10;99.90;;;;;;5116882;28;20197;-82
2021/06/03 02:37:41;;;;;;;10.00;6.07;;;10.10;99.90;;;;;;5117355;28;20178;-83
2021/06/03 02:40:15;;;;;;;12.93;6.67;;;10.10;99.90;;;;;;5117268;28;20590;-82
2021/06/03 02:42:43;;;;;;;11.23;6.77;;;10.10;99.90;;;;;;5116992;28;20155;-82
2021/06/03 02:45:14;;;;;;;8.97;6.47;;;10.10;99.90;;;;;;5116930;28;20180;-82
2021/06/03 02:47:41;;;;;;;13.07;6.13;;;10.10;99.90;;;;;;5117246;28;20596;-82
2021/06/03 02:50:09;;;;;;;10.53;6.17;;;10.10;99.90;;;;;;5116931;28;20170;-83
2021/06/03 02:52:35;;;;;;;12.93;6.10;;;10.10;99.90;;;;;;5116513;28;20174;-82
2021/06/03 02:55:03;;;;;;;11.53;6.57;;;10.10;99.90;;;;;;5117029;28;20202;-82
2021/06/03 02:57:28;;;;;;;10.40;6.17;;;10.10;99.90;;;;;;5117058;28;20182;-82
2021/06/03 02:59:54;;;;;;;13.87;6.77;;;;;;;;;;5117317;28;20178;-82
2021/06/03 03:02:20;;;;;;;18.33;6.80;;;10.20;99.90;;;;;;5116408;27;20174;-82
2021/06/03 03:04:46;;;;;;;11.93;6.63;;;10.20;99.90;;;;;;5116401;28;20178;-82
2021/06/03 03:07:12;;;;;;;13.23;6.50;;;10.20;99.90;;;;;;5116709;28;20166;-82
2021/06/03 03:09:37;;;;;;;13.10;7.03;;;10.30;99.90;;;;;;5115345;28;20174;-82
2021/06/03 03:12:04;;;;;;;16.87;7.30;;;10.30;99.90;;;;;;5116967;28;20237;-82
2021/06/03 03:14:30;;;;;;;17.47;7.20;;;10.40;99.90;;;;;;5115754;28;20727;-81
2021/06/03 03:16:56;;;;;;;16.00;7.43;;;10.40;99.90;;;;;;5132130;27;20269;-82
2021/06/03 03:19:22;;;;;;;13.30;7.03;;;10.50;99.90;;;;;;5116293;28;20276;-82
2021/06/03 03:21:47;;;;;;;18.03;7.00;;;10.50;99.90;;;;;;5116977;28;20185;-83
2021/06/03 03:24:13;;;;;;;17.67;7.47;;;10.50;99.90;;;;;;5116488;28;20190;-81
2021/06/03 03:26:39;;;;;;;12.77;7.33;;;10.60;99.90;;;;;;5116439;28;20185;-82
2021/06/03 03:29:04;;;;;;;13.00;7.80;;;10.60;99.90;;;;;;5117771;28;20227;-82
2021/06/03 03:31:30;;;;;;;15.80;7.80;;;10.70;99.90;;;;;;5134478;28;20178;-81
2021/06/03 03:34:02;;;;;;;15.30;7.87;;;10.80;99.90;;;;;;5139163;28;20198;-82
2021/06/03 03:36:31;;;;;;;14.27;7.30;;;10.90;99.90;;;;;;5138165;28;20170;-81
2021/06/03 03:38:57;;;;;;;14.67;7.57;;;10.90;99.90;;;;;;5139099;28;20200;-83
2021/06/03 03:41:23;;;;;;;14.93;8.53;;;11.00;99.90;;;;;;5138876;28;20177;-81
2021/06/03 03:43:50;;;;;;;15.60;8.27;;;11.10;99.90;;;;;;5119250;28;20185;-83
2021/06/03 03:46:16;;;;;;;15.87;8.13;;;11.20;99.90;;;;;;5097578;28;20538;-82
2021/06/03 03:48:41;;;;;;;18.52;8.05;;;11.40;99.90;;;;;;5115381;28;20188;-82
2021/06/03 03:51:09;;;;;;;13.35;7.80;;;11.40;99.90;;;;;;5115380;28;20243;-82
2021/06/03 03:53:34;;;;;;;15.95;7.55;;;11.60;99.90;;;;;;5115310;28;20202;-82
2021/06/03 03:56:00;;;;;;;13.73;8.10;;;11.70;99.90;;;;;;5114458;28;20200;-82
2021/06/03 03:58:26;;;;;;;10.60;7.20;;;11.80;99.90;;;;;;5115314;28;20687;-82
2021/06/03 04:00:51;;;;;;;12.40;7.57;;;11.90;99.90;;;;;;5114399;28;20185;-82
2021/06/03 04:03:17;;;;;;;17.15;7.63;;;12.10;99.90;;;;;;5115258;28;20546;-82
2021/06/03 04:05:43;;;;;;;15.50;8.82;;;12.20;99.90;;;;;;5113976;28;20205;-82
2021/06/03 04:08:09;;;;;;;14.70;8.50;;;12.30;99.90;;;;;;5115363;28;20178;-82
2021/06/03 04:10:34;;;;;;;17.30;8.82;;;12.40;99.90;;;;;;5115203;28;20188;-83
2021/06/03 04:13:00;;;;;;;13.30;8.20;;;12.60;99.90;;;;;;5115746;28;20174;-83
2021/06/03 04:15:26;;;;;;;16.67;8.57;;;12.70;99.90;;;;;;5115383;28;20178;-83
2021/06/03 04:17:52;;;;;;;12.93;8.68;;;12.90;99.90;;;;;;5116244;28;20178;-83
2021/06/03 04:20:20;;;;;;;18.52;7.97;;;13.00;99.90;;;;;;5116102;28;20193;-82
2021/06/03 04:22:46;;;;;;;12.95;7.53;;;13.10;99.90;;;;;;5115193;28;20614;-83
2021/06/03 04:25:12;;;;;;;11.77;7.63;;;13.20;99.90;;;;;;5114639;28;20549;-83
2021/06/03 04:27:39;;;;;;;14.30;7.47;;;13.30;99.90;;;;;;5114700;28;20188;-83
2021/06/03 04:30:10;;;;;;;12.15;7.22;;;13.40;99.90;;;;;;5114179;28;20278;-83
2021/06/03 04:32:35;;;;;;;12.68;7.20;;;13.60;99.90;;;;;;5115132;28;20169;-83
2021/06/03 04:35:03;;;;;;;14.25;6.90;;;13.70;99.90;;;;;;5115271;28;20328;-83
2021/06/03 04:37:29;;;;;;;12.43;6.60;;;13.80;99.90;;;;;;5114805;28;20182;-82
2021/06/03 04:39:54;;;;;;;13.88;6.93;;;13.90;99.90;;;;;;5115439;28;20180;-83
2021/06/03 04:42:20;;;;;;;14.93;6.88;;;14.00;99.90;;;;;;5114511;28;20193;-83
2021/06/03 04:44:46;;;;;;;17.17;6.55;;;14.20;99.90;;;;;;5114221;28;20173;-82
2021/06/03 04:47:12;;;;;;;9.30;6.20;;;14.40;99.90;;;;;;5114817;28;20634;-83
2021/06/03 04:49:38;;;;;;;9.70;5.57;;;14.50;99.90;;;;;;5114141;28;20226;-83
2021/06/03 04:54:48;;;;;;;8.65;4.90;;;14.70;99.90;;;;;;5114166;28;20201;-83
2021/06/03 04:57:14;;;;;;;14.23;5.00;;;14.80;99.90;;;;;;5114280;28;20177;-83
2021/06/03 04:59:40;;;;;;;7.80;4.85;;;14.90;99.90;;;;;;5113768;28;20177;-83
2021/06/03 05:02:05;;;;;;;7.60;4.30;;;15.00;99.90;;;;;;5112726;28;20181;-84
2021/06/03 05:04:31;;;;;;;10.82;4.50;;;15.10;99.90;;;;;;5113780;28;20256;-82
2021/06/03 05:06:57;;;;;;;13.98;4.80;;;15.20;99.90;;;;;;5114168;28;20235;-83
2021/06/03 05:09:22;;;;;;;5.70;4.50;;;15.30;99.90;;;;;;5114039;28;20173;-82
2021/06/03 05:11:48;;;;;;;8.50;4.85;;;15.30;99.90;;;;;;5113063;28;20729;-83
2021/06/03 05:14:14;;;;;;;10.20;4.47;;;15.40;99.90;;;;;;5112439;28;20236;-83
2021/06/03 05:16:41;;;;;;;6.55;4.55;;;15.50;99.90;;;;;;5095395;28;20193;-83
2021/06/03 05:19:06;;;;;;;5.63;4.20;;;15.60;99.90;;;;;;5113976;28;20181;-83
2021/06/03 05:21:32;;;;;;;9.43;4.82;;;15.70;99.90;;;;;;5113567;28;20246;-83
2021/06/03 05:23:58;;;;;;;7.97;4.57;;;15.80;99.90;;;;;;5113821;28;20185;-83
2021/06/03 05:26:24;;;;;;;6.38;4.28;;;17.10;99.90;;;;;;5113901;28;20177;-82
2021/06/03 05:28:49;;;;;;;5.10;3.85;;;16.00;99.90;;;;;;5112477;28;20176;-83
2021/06/03 05:31:15;;;;;;;9.98;4.40;;;16.10;99.90;;;;;;5112912;28;20189;-83
2021/06/03 05:33:41;;;;;;;6.85;4.15;;;16.20;99.90;;;;;;5112875;28;20284;-83
2021/06/03 05:36:06;;;;;;;10.60;4.13;;;16.20;99.90;;;;;;5113295;28;20178;-83
2021/06/03 05:38:32;;;;;;;5.82;3.95;;;;;;;;;;5111520;28;20169;-82
2021/06/03 05:40:58;;;;;;;9.60;5.10;;;16.40;99.90;;;;;;5111833;28;20239;-83
2021/06/03 05:43:24;;;;;;;8.40;4.47;;;16.50;99.90;;;;;;5112921;28;20200;-82
2021/06/03 05:45:49;;;;;;;13.57;5.07;;;16.60;99.90;;;;;;5112790;28;20652;-82
2021/06/03 05:48:15;;;;;;;11.35;4.03;;;16.70;99.90;;;;;;5113011;28;20170;-83
2021/06/03 05:50:41;;;;;;;9.07;4.18;;;16.80;99.90;;;;;;5112585;28;20206;-81
2021/06/03 05:53:07;;;;;;;15.13;5.45;;;16.90;99.90;;;;;;5113566;28;20173;-81
2021/06/03 05:55:32;;;;;;;9.73;4.70;;;17.00;99.90;;;;;;5116760;28;20177;-83
2021/06/03 05:57:58;;;;;;;6.63;4.00;;;17.10;99.90;;;;;;5117162;28;20633;-81
2021/06/03 06:00:29;;;;;;;7.47;4.68;;;17.40;99.90;;;;;;5115953;28;20177;-82
2021/06/03 06:02:56;;;;;;;10.55;4.50;;;17.30;99.90;;;;;;5116771;28;20154;-82
2021/06/03 06:08:10;;;;;;;6.97;3.70;;;17.50;99.90;;;;;;5117367;28;20204;-82
2021/06/03 06:10:37;;;;;;;6.38;4.22;;;17.50;98.90;;;;;;5115379;28;20181;-82
2021/06/03 06:13:04;;;;;;;7.50;4.15;;;17.60;99.40;;;;;;5116718;28;20504;-83
2021/06/03 06:15:31;;;;;;;7.85;4.18;;;17.70;99.20;;;;;;5116750;28;20663;-83
2021/06/03 06:17:58;;;;;;;8.80;4.07;;;17.90;98.90;;;;;;5116564;28;20254;-83
2021/06/03 06:20:25;;;;;;;6.95;3.90;;;18.00;99.40;;;;;;5116336;28;20745;-82
2021/06/03 06:22:52;;;;;;;6.78;3.92;;;18.20;98.50;;;;;;5116488;28;20177;-82
2021/06/03 06:25:19;;;;;;;8.20;3.90;;;18.30;96.60;;;;;;5116527;28;20189;-82
2021/06/03 06:27:45;;;;;;;7.35;4.75;;;18.30;97.10;;;;;;5116051;28;20178;-83
2021/06/03 06:30:13;;;;;;;7.70;4.50;;;18.50;96.50;;;;;;5116306;28;20178;-82
2021/06/03 06:32:39;;;;;;;14.55;7.25;;;18.50;95.70;;;;;;5115345;27;20181;-82
2021/06/03 06:35:06;;;;;;;7.43;4.65;;;18.60;96.50;;;;;;5117510;27;20233;-82
2021/06/03 06:37:32;;;;;;;14.18;3.97;;;18.80;97.10;;;;;;5106168;27;20727;-82
2021/06/03 06:39:58;;;;;;;5.45;3.95;;;18.90;95.70;;;;;;5114147;27;20634;-82
2021/06/03 06:42:25;;;;;;;5.88;3.88;;;18.80;92.80;;;;;;5117706;28;20184;-82
2021/06/03 06:44:51;;;;;;;7.80;4.45;;;18.90;92.80;;;;;;5113572;28;20239;-81
2021/06/03 06:47:17;;;;;;;7.47;3.85;;;19.00;93.20;;;;;;5111766;28;20178;-80
2021/06/03 06:49:43;;;;;;;12.55;3.67;;;19.10;93.20;;;;;;5102479;27;20194;-81
2021/06/03 06:52:08;;;;;;;6.43;3.42;;;19.20;92.60;;;;;;5094573;28;20731;-81
2021/06/03 06:54:34;;;;;;;8.98;4.03;;;19.20;92.50;;;;;;5112556;28;20241;-84
2021/06/03 06:57:00;;;;;;;7.63;3.30;;;19.30;91.30;;;;;;5109756;28;20218;-81
2021/06/03 06:59:26;;;;;;;8.32;3.83;;;19.40;91.50;;;;;;5117767;28;20174;-81
2021/06/03 07:01:52;;;;;;;5.97;3.08;;;19.50;90.60;;;;;;5108612;28;20546;-81
2021/06/03 07:04:17;;;;;;;6.43;3.10;;;19.60;86.90;;;;;;5113759;28;20197;-81
2021/06/03 07:06:43;;;;;;;7.90;3.60;;;19.70;83.30;;;;;;5107186;27;20197;-81
2021/06/03 07:09:09;;;;;;;5.93;2.80;;;19.70;85.20;;;;;;5103618;28;20219;-81
2021/06/03 07:11:35;;;;;;;5.00;3.20;;;19.80;78.70;;;;;;5109620;28;20232;-81
2021/06/03 07:14:03;;;;;;;5.60;3.53;;;19.90;78.90;;;;;;5095395;28;20289;-81
2021/06/03 07:16:28;;;;;;;6.20;3.00;;;20.10;81.50;;;;;;5112333;28;20262;-81
2021/06/03 07:18:54;;;;;;;7.03;2.50;;;20.20;74.30;;;;;;5108427;28;20186;-82
2021/06/03 07:21:20;;;;;;;6.30;2.75;;;20.30;74.40;;;;;;5113706;28;20199;-81
2021/06/03 07:23:46;;;;;;;7.40;2.92;;;20.40;71.60;;;;;;5106699;28;20305;-82
2021/06/03 07:26:11;;;;;;;4.53;2.67;;;20.60;72.50;;;;;;5096797;28;20182;-81
2021/06/03 07:28:37;;;;;;;3.72;2.50;;;20.60;71.30;;;;;;5112229;28;20254;-81
2021/06/03 07:31:04;;;;;;;5.40;2.83;;;20.70;69.20;;;;;;5113863;28;20647;-81
2021/06/03 07:33:30;;;;;;;8.50;3.53;;;20.80;70.60;;;;;;5113851;28;20678;-81
2021/06/03 07:35:56;;;;;;;5.32;2.60;;;20.70;68.80;;;;;;5104415;28;20186;-82
2021/06/03 07:38:23;;;;;;;7.57;2.85;;;20.70;68.80;;;;;;5110092;28;20579;-81
2021/06/03 07:40:49;;;;;;;5.70;2.80;;;20.70;65.50;;;;;;5127077;27;20190;-81
2021/06/03 07:43:15;;;;;;;4.65;3.25;;;20.80;63.30;;;;;;5093363;28;20194;-81
2021/06/03 07:45:42;;;;;;;7.25;2.90;;;20.90;66.90;;;;;;5094682;28;20193;-80
2021/06/03 07:48:09;;;;;;;13.77;3.88;;;21.00;62.50;;;;;;5110455;27;20590;-82
2021/06/03 07:50:36;;;;;;;5.72;2.58;;;21.00;63.60;;;;;;5108063;28;20194;-82
2021/06/03 07:53:04;;;;;;;5.03;3.13;;;21.10;65.20;;;;;;5109888;28;20185;-82
2021/06/03 07:55:30;;;;;;;4.60;2.70;;;21.20;63.90;;;;;;5112834;28;20657;-82
2021/06/03 07:57:59;;;;;;;5.25;2.85;;;21.30;60.30;;;;;;5109633;28;20186;-82
2021/06/03 08:00:28;;;;;;;11.35;3.33;;;21.40;60.40;;;;;;5113120;28;20174;-82
2021/06/03 08:02:54;;;;;;;4.07;2.97;;;21.40;62.20;;;;;;5110745;28;20189;-81
2021/06/03 08:05:21;;;;;;;4.40;3.20;;;21.30;61.10;;;;;;5112445;28;20187;-80
2021/06/03 08:07:49;;;;;;;7.22;3.15;;;21.30;62.60;;;;;;5108015;28;20235;-81
2021/06/03 08:10:17;;;;;;;4.95;2.55;;;21.30;63.60;;;;;;5104879;28;20220;-81
2021/06/03 08:12:44;;;;;;;6.55;2.70;;;21.30;60.10;;;;;;5111840;28;20233;-82
2021/06/03 08:15:11;;;;;;;5.35;3.00;;;21.20;59.00;;;;;;5103122;28;20221;-81
2021/06/03 08:17:37;;;;;;;8.68;2.80;;;21.20;59.50;;;;;;5105358;28;20185;-81
2021/06/03 08:20:10;;;;;;;5.90;3.00;;;21.10;61.70;;;;;;5099455;28;20188;-81
2021/06/03 08:22:36;;;;;;;8.50;3.72;;;21.20;64.80;;;;;;5106029;28;20261;-81
2021/06/03 08:25:04;;;;;;;5.18;2.85;;;21.30;65.20;;;;;;5101729;28;20185;-81
2021/06/03 08:27:30;;;;;;;3.75;2.58;;;19.40;61.30;;;;;;5100541;28;20251;-81
2021/06/03 08:29:56;;;;;;;5.38;2.60;;;21.50;64.80;;;;;;5112196;28;20181;-82
2021/06/03 08:32:21;;;;;;;5.40;3.05;;;21.60;60.20;;;;;;5111032;28;20267;-82
2021/06/03 08:34:47;;;;;;;4.70;3.05;;;21.80;60.80;;;;;;5102836;28;20208;-82
2021/06/03 08:37:13;;;;;;;6.80;2.78;;;21.90;62.20;;;;;;5110745;28;20194;-81
2021/06/03 08:39:38;;;;;;;6.07;2.75;;;21.80;63.80;;;;;;5110884;27;20182;-81
2021/06/03 08:42:05;;;;;;;7.63;2.97;;;21.80;58.10;;;;;;5116537;27;20220;-81
2021/06/03 08:44:32;;;;;;;5.22;2.70;;;21.90;59.50;;;;;;5111139;28;20213;-81
2021/06/03 08:46:57;;;;;;;5.50;2.60;;;22.20;59.50;;;;;;5109889;28;20182;-81
2021/06/03 08:49:24;;;;;;;6.50;3.42;;;22.20;59.20;;;;;;5092599;28;20187;-81
2021/06/03 08:51:51;;;;;;;7.13;2.58;;;22.40;58.00;;;;;;5092112;28;20549;-81
2021/06/03 08:54:17;;;;;;;6.38;3.40;;;22.20;58.20;;;;;;5106146;28;20210;-81
2021/06/03 08:56:43;;;;;;;8.50;2.58;;;22.30;56.00;;;;;;5103924;28;20658;-81
2021/06/03 08:59:09;;;;;;;9.85;3.05;;;22.20;55.60;;;;;;5111169;28;20307;-81
2021/06/03 09:01:35;;;;;;;5.97;2.38;;;22.10;56.50;;;;;;5112669;28;20549;-81
2021/06/03 09:04:01;;;;;;;8.13;2.70;;;22.00;56.00;;;;;;5112402;28;20731;-81
2021/06/03 09:06:27;;;;;;;7.10;2.75;;;22.00;56.90;;;;;;5111621;28;20197;-81
2021/06/03 09:08:58;;;;;;;6.15;3.25;;;22.10;55.60;;;;;;5111936;28;20188;-82
2021/06/03 09:11:28;;;;;;;3.95;2.50;;;22.10;58.10;;;;;;5098959;28;20229;-82
2021/06/03 09:13:56;;;;;;;9.32;2.67;;;22.00;55.00;;;;;;5101217;28;20206;-82
2021/06/03 09:16:24;;;;;;;5.88;2.60;;;21.90;56.20;;;;;;5112332;28;20201;-82
2021/06/03 09:19:05;;;;;;;9.98;2.92;;;21.80;55.10;;;;;;5112130;28;20650;-81
2021/06/03 09:21:35;;;;;;;6.55;2.65;;;21.60;54.90;;;;;;5112022;28;20182;-81
2021/06/03 09:24:13;;;;;;;2.95;2.33;;;21.60;55.80;;;;;;5108118;28;20178;-81
2021/06/03 09:26:45;;;;;;;5.18;2.10;;;21.70;56.50;;;;;;5103322;28;20174;-82
2021/06/03 09:29:13;;;;;;;7.47;1.98;;;21.90;55.50;;;;;;5110991;28;20173;-81
2021/06/03 09:31:40;;;;;;;3.90;2.58;;;22.10;57.70;;;;;;5101745;28;20223;-82
2021/06/03 09:34:09;;;;;;;2.53;2.05;;;22.40;57.90;;;;;;5103700;28;20206;-81
2021/06/03 09:36:50;;;;;;;4.93;2.53;;;22.60;58.30;;;;;;5111785;28;20699;-81
2021/06/03 09:39:52;;;;;;;5.93;2.70;;;22.80;55.00;;;;;;5096598;28;20183;-81
2021/06/03 09:42:20;;;;;;;8.57;2.72;;;23.10;58.60;;;;;;5031752;28;20195;-81
2021/06/03 09:44:56;;;;;;;6.88;2.33;;;23.10;57.40;;;;;;5086206;28;20198;-81
2021/06/03 09:47:39;;;;;;;5.05;2.67;;;23.10;58.60;;;;;;5106492;28;20203;-82
2021/06/03 09:50:08;;;;;;;4.50;2.13;;;23.00;55.70;;;;;;5091403;28;20182;-81
2021/06/03 09:52:36;;;;;;;6.28;2.80;;;22.90;56.00;;;;;;5096951;28;20189;-82
2021/06/03 09:55:11;;;;;;;12.07;3.38;;;22.90;57.10;;;;;;5111535;28;20193;-81
2021/06/03 09:57:39;;;;;;;5.72;2.60;;;22.80;55.10;;;;;;5111516;28;20268;-81
2021/06/03 10:00:10;;;;;;;5.70;2.92;;;22.70;55.90;;;;;;5111167;28;20177;-81
2021/06/03 10:02:36;;;;;;;4.07;2.33;;;22.50;56.20;;;;;;5107977;28;20183;-82
2021/06/03 10:05:11;;;;;;;4.43;2.60;;;22.80;56.80;;;;;;5081362;28;20194;-81
2021/06/03 10:07:37;;;;;;;7.70;2.63;;;23.00;57.20;;;;;;5102052;28;20236;-82
2021/06/03 10:10:10;;;;;;;7.90;3.03;;;23.20;56.70;;;;;;5100986;28;20654;-83
2021/06/03 10:12:39;;;;;;;7.78;3.38;;;23.50;55.10;;;;;;5111594;28;20233;-82
2021/06/03 10:15:13;;;;;;;7.65;2.25;;;23.70;55.10;;;;;;5109469;28;20198;-82
2021/06/03 10:18:00;;;;;;;3.35;2.35;;;23.90;55.20;;;;;;5110914;28;20276;-82
2021/06/03 10:20:45;;;;;;;6.25;2.20;;;24.10;54.00;;;;;;5092638;28;20178;-83
2021/06/03 10:23:19;;;;;;;7.63;2.60;;;24.10;54.10;;;;;;5100232;28;20694;-82
2021/06/03 10:25:46;;;;;;;5.10;2.50;;;24.30;54.00;;;;;;5110955;28;20206;-83
2021/06/03 10:28:19;;;;;;;4.18;2.20;;;24.40;53.30;;;;;;5108303;28;20186;-82
2021/06/03 10:30:57;;;;;;;3.35;2.20;;;24.50;54.20;;;;;;5109148;28;20170;-82
2021/06/03 10:33:31;;;;;;;5.40;1.88;;;24.70;54.20;;;;;;5108033;28;20200;-81
2021/06/03 10:36:00;;;;;;;7.78;3.25;;;24.50;51.70;;;;;;5110379;28;20261;-81
2021/06/03 10:38:26;;;;;;;4.95;2.50;;;24.40;51.20;;;;;;5107270;28;20186;-81
2021/06/03 10:41:02;;;;;;;6.95;2.75;;;24.40;51.60;;;;;;5103030;27;20214;-82
2021/06/03 10:43:28;;;;;;;3.50;3.03;;;23.90;52.90;;;;;;5113010;28;20174;-82
2021/06/03 10:45:54;;;;;;;4.65;2.50;;;23.40;51.50;;;;;;5113013;28;20178;-82
2021/06/03 10:48:20;;;;;;;5.75;2.17;;;23.10;53.30;;;;;;5112839;28;20704;-82
2021/06/03 10:50:51;;;;;;;4.88;2.03;;;22.80;55.70;;;;;;5114457;28;20552;-82
2021/06/03 10:53:44;;;;;;;5.05;2.30;;;22.60;54.00;;;;;;5109006;28;20205;-81
2021/06/03 10:56:14;;;;;;;3.10;1.95;;;23.00;55.00;;;;;;5101298;28;20194;-81
2021/06/03 10:58:43;;;;;;;4.65;1.98;;;23.20;57.30;;;;;;5113885;28;20181;-81
2021/06/03 11:01:10;;;;;;;2.92;2.40;;;23.40;56.10;;;;;;5100074;28;20191;-81
2021/06/03 11:03:46;;;;;;;8.93;3.72;;;23.70;53.10;;;;;;5106224;28;20174;-80
2021/06/03 11:06:14;;;;;;;3.88;2.22;;;23.60;52.90;;;;;;5095872;28;20170;-83
2021/06/03 11:08:55;;;;;;;4.90;2.15;;;23.20;51.20;;;;;;5095712;28;20311;-81
2021/06/03 11:11:28;;;;;;;4.05;2.13;;;22.60;51.40;;;;;;5095050;28;20247;-81
2021/06/03 11:13:53;;;;;;;3.08;2.38;;;22.30;52.50;;;;;;5102865;28;20201;-82
2021/06/03 11:16:34;;;;;;;5.55;1.83;;;22.20;52.50;;;;;;5097192;28;20189;-81
2021/06/03 11:19:00;;;;;;;2.92;2.03;;;22.30;53.10;;;;;;5095329;28;20183;-83
2021/06/03 11:21:37;;;;;;;5.45;2.00;;;22.70;55.30;;;;;;5095851;28;20193;-82
2021/06/03 11:24:10;;;;;;;7.57;2.58;;;23.10;52.70;;;;;;5106171;28;20177;-82
2021/06/03 11:26:48;;;;;;;4.95;2.38;;;23.50;53.80;;;;;;5111259;28;20177;-82
2021/06/03 11:29:35;;;;;;;2.22;1.67;;;24.00;52.90;;;;;;5113955;28;20181;-81
2021/06/03 11:32:04;;;;;;;3.30;1.83;;;23.90;51.10;;;;;;5101795;28;20203;-81
2021/06/03 11:34:39;;;;;;;5.63;2.60;;;23.90;51.40;;;;;;5111844;28;20228;-81
2021/06/03 11:37:18;;;;;;;5.70;2.80;;;23.80;52.20;;;;;;5112122;28;20189;-82
2021/06/03 11:39:49;;;;;;;4.72;3.25;;;23.50;51.80;;;;;;5111728;27;20192;-81
2021/06/03 11:42:25;;;;;;;9.50;5.40;;;23.20;52.20;;;;;;5123078;27;20701;-81
2021/06/03 11:45:04;;;;;;;13.50;9.43;;;22.60;52.20;;;;;;5111618;28;20539;-81
2021/06/03 11:47:36;;;;;;;6.18;3.72;;;22.70;53.50;;;;;;5103656;28;20202;-80
2021/06/03 11:50:14;;;;;;;10.30;2.05;;;23.00;54.30;;;;;;5110481;28;20178;-81
2021/06/03 11:52:52;;;;;;;3.63;2.22;;;23.20;51.30;;;;;;5113733;28;20196;-81
2021/06/03 11:55:47;;;;;;;9.85;2.30;;;23.10;51.10;;;;;;5113676;28;20793;-81
2021/06/03 11:58:32;;;;;;;7.47;2.35;;;22.90;52.30;;;;;;5114428;28;20188;-80
2021/06/03 12:01:17;;;;;;;6.00;4.15;;;22.80;54.00;;;;;;5113285;28;20202;-80
2021/06/03 12:03:45;;;;;;;27.27;13.23;;;22.70;52.30;;;;;;5113206;28;20177;-81
2021/06/03 12:06:12;;;;;;;3.40;2.47;;;22.90;52.50;;;;;;5112100;28;20181;-81
2021/06/03 12:08:48;;;;;;;2.42;2.05;;;23.00;53.10;;;;;;5113262;28;20173;-81
2021/06/03 12:11:18;;;;;;;5.68;2.58;;;23.00;51.80;;;;;;5112524;28;20792;-81
2021/06/03 12:13:45;;;;;;;3.40;2.63;;;23.20;52.60;;;;;;5113090;28;20215;-81
2021/06/03 12:16:11;;;;;;;5.57;2.20;;;23.40;51.10;;;;;;5112340;28;20182;-80
2021/06/03 12:18:42;;;;;;;3.95;2.10;;;23.40;51.50;;;;;;5114349;28;20185;-80
2021/06/03 12:21:11;;;;;;;3.45;2.63;;;23.30;52.30;;;;;;5115409;28;20257;-80
2021/06/03 12:23:50;;;;;;;2.47;1.90;;;23.20;52.30;;;;;;5114593;28;20166;-80
2021/06/03 12:26:19;;;;;;;6.22;2.67;;;22.80;50.80;;;;;;5114619;28;20188;-81
2021/06/03 12:28:45;;;;;;;9.68;2.55;;;22.50;52.20;;;;;;5114490;28;20192;-80
2021/06/03 12:31:26;;;;;;;5.97;2.67;;;22.40;52.30;;;;;;5115099;28;20192;-81
2021/06/03 12:33:53;;;;;;;2.22;1.63;;;22.40;52.50;;;;;;5114773;28;20205;-80
2021/06/03 12:36:19;;;;;;;3.70;2.33;;;22.50;53.00;;;;;;5114374;28;20541;-81
2021/06/03 12:38:50;;;;;;;4.90;1.98;;;22.70;52.20;;;;;;5114562;28;20186;-81
2021/06/03 12:41:39;;;;;;;3.92;2.83;;;23.00;53.20;;;;;;5114952;28;20189;-80
2021/06/03 12:44:17;;;;;;;2.60;2.00;;;23.20;51.60;;;;;;5115173;28;20191;-80
2021/06/03 12:46:51;;;;;;;3.33;2.30;;;23.40;51.70;;;;;;5122634;28;20150;-81
2021/06/03 12:49:21;;;;;;;4.38;2.10;;;23.60;50.90;;;;;;5124921;28;20169;-81
2021/06/03 12:52:00;;;;;;;3.42;2.00;;;23.70;50.30;;;;;;5123245;28;20168;-79
2021/06/03 12:54:43;;;;;;;3.97;2.05;;;23.80;50.60;;;;;;5122627;28;20649;-79
2021/06/03 12:57:15;;;;;;;2.70;1.83;;;23.70;50.80;;;;;;5120367;28;20263;-81
2021/06/03 12:59:43;;;;;;;3.35;2.00;;;23.40;49.30;;;;;;5113888;28;20202;-81